sensor_id;sensor_type;location;lat;lon;timestamp;temperature;humidity
71237;DHT22;58984;51.960;5.582;2023-08-07T00:00:50;20.90;62.00
71237;DHT22;58984;51.960;5.582;2023-08-07T00:03:16;20.90;62.00
71237;DHT22;58984;51.960;5.582;2023-08-07T00:05:50;20.90;62.00
71237;DHT22;58984;51.960;5.582;2023-08-07T00:08:17;20.80;62.10
71237;DHT22;58984;51.960;5.582;2023-08-07T00:10:43;20.90;62.10
71237;DHT22;58984;51.960;5.582;2023-08-07T00:13:08;20.90;62.20
71237;DHT22;58984;51.960;5.582;2023-08-07T00:15:34;20.90;62.20
71237;DHT22;58984;51.960;5.582;2023-08-07T00:18:00;20.80;62.10
71237;DHT22;58984;51.960;5.582;2023-08-07T00:20:26;20.80;62.10
71237;DHT22;58984;51.960;5.582;2023-08-07T00:22:51;20.90;62.30
71237;DHT22;58984;51.960;5.582;2023-08-07T00:25:17;20.90;62.30
71237;DHT22;58984;51.960;5.582;2023-08-07T00:27:42;20.80;62.20
71237;DHT22;58984;51.960;5.582;2023-08-07T00:30:09;20.90;62.40
71237;DHT22;58984;51.960;5.582;2023-08-07T00:32:34;20.90;62.30
71237;DHT22;58984;51.960;5.582;2023-08-07T00:35:00;20.80;62.20
71237;DHT22;58984;51.960;5.582;2023-08-07T00:37:25;20.80;62.30
71237;DHT22;58984;51.960;5.582;2023-08-07T00:39:51;20.80;62.20
71237;DHT22;58984;51.960;5.582;2023-08-07T00:42:16;20.90;62.40
71237;DHT22;58984;51.960;5.582;2023-08-07T00:44:42;20.80;62.30
71237;DHT22;58984;51.960;5.582;2023-08-07T00:47:08;20.80;62.30
71237;DHT22;58984;51.960;5.582;2023-08-07T00:49:34;20.80;62.40
71237;DHT22;58984;51.960;5.582;2023-08-07T00:52:00;20.80;62.40
71237;DHT22;58984;51.960;5.582;2023-08-07T00:54:25;20.80;62.30
71237;DHT22;58984;51.960;5.582;2023-08-07T00:56:51;20.80;62.30
71237;DHT22;58984;51.960;5.582;2023-08-07T00:59:18;20.80;62.30
71237;DHT22;58984;51.960;5.582;2023-08-07T01:01:44;20.80;62.30
71237;DHT22;58984;51.960;5.582;2023-08-07T01:04:10;20.80;62.30
71237;DHT22;58984;51.960;5.582;2023-08-07T01:06:36;20.80;62.30
71237;DHT22;58984;51.960;5.582;2023-08-07T01:09:02;20.80;62.30
71237;DHT22;58984;51.960;5.582;2023-08-07T01:14:02;20.80;62.30
71237;DHT22;58984;51.960;5.582;2023-08-07T01:19:24;20.70;62.30
71237;DHT22;58984;51.960;5.582;2023-08-07T01:22:15;20.70;62.20
71237;DHT22;58984;51.960;5.582;2023-08-07T01:24:43;20.70;62.20
71237;DHT22;58984;51.960;5.582;2023-08-07T01:29:48;20.70;62.20
71237;DHT22;58984;51.960;5.582;2023-08-07T01:35:07;20.70;62.20
71237;DHT22;58984;51.960;5.582;2023-08-07T01:37:38;20.80;62.20
71237;DHT22;58984;51.960;5.582;2023-08-07T01:40:05;20.70;62.20
71237;DHT22;58984;51.960;5.582;2023-08-07T01:42:32;20.80;62.30
71237;DHT22;58984;51.960;5.582;2023-08-07T01:44:58;20.70;62.20
71237;DHT22;58984;51.960;5.582;2023-08-07T01:47:24;20.70;62.20
71237;DHT22;58984;51.960;5.582;2023-08-07T01:49:49;20.70;62.20
71237;DHT22;58984;51.960;5.582;2023-08-07T01:52:15;20.70;62.20
71237;DHT22;58984;51.960;5.582;2023-08-07T01:54:40;20.70;62.20
71237;DHT22;58984;51.960;5.582;2023-08-07T01:57:06;20.70;62.20
71237;DHT22;58984;51.960;5.582;2023-08-07T01:59:32;20.70;62.20
71237;DHT22;58984;51.960;5.582;2023-08-07T02:01:57;20.70;62.20
71237;DHT22;58984;51.960;5.582;2023-08-07T02:04:23;20.70;62.30
71237;DHT22;58984;51.960;5.582;2023-08-07T02:06:48;20.70;62.20
71237;DHT22;58984;51.960;5.582;2023-08-07T02:09:14;20.70;62.20
71237;DHT22;58984;51.960;5.582;2023-08-07T02:11:42;20.70;62.20
71237;DHT22;58984;51.960;5.582;2023-08-07T02:14:08;20.70;62.10
71237;DHT22;58984;51.960;5.582;2023-08-07T02:16:33;20.70;62.20
71237;DHT22;58984;51.960;5.582;2023-08-07T02:18:59;20.70;62.20
71237;DHT22;58984;51.960;5.582;2023-08-07T02:21:25;20.70;62.20
71237;DHT22;58984;51.960;5.582;2023-08-07T02:23:50;20.60;62.10
71237;DHT22;58984;51.960;5.582;2023-08-07T02:26:16;20.60;62.00
71237;DHT22;58984;51.960;5.582;2023-08-07T02:28:41;20.60;62.10
71237;DHT22;58984;51.960;5.582;2023-08-07T02:31:07;20.60;62.10
71237;DHT22;58984;51.960;5.582;2023-08-07T02:33:32;20.60;62.90
71237;DHT22;58984;51.960;5.582;2023-08-07T02:35:58;20.60;62.10
71237;DHT22;58984;51.960;5.582;2023-08-07T02:38:25;20.60;62.10
71237;DHT22;58984;51.960;5.582;2023-08-07T02:40:50;20.60;62.10
71237;DHT22;58984;51.960;5.582;2023-08-07T02:43:16;20.60;62.00
71237;DHT22;58984;51.960;5.582;2023-08-07T02:45:42;20.60;62.00
71237;DHT22;58984;51.960;5.582;2023-08-07T02:48:07;20.60;62.10
71237;DHT22;58984;51.960;5.582;2023-08-07T02:50:33;20.60;62.10
71237;DHT22;58984;51.960;5.582;2023-08-07T02:53:00;20.60;62.10
71237;DHT22;58984;51.960;5.582;2023-08-07T02:55:25;20.60;62.10
71237;DHT22;58984;51.960;5.582;2023-08-07T02:57:51;20.60;62.10
71237;DHT22;58984;51.960;5.582;2023-08-07T03:00:16;20.60;62.20
71237;DHT22;58984;51.960;5.582;2023-08-07T03:02:42;20.60;62.20
71237;DHT22;58984;51.960;5.582;2023-08-07T03:05:08;20.60;62.20
71237;DHT22;58984;51.960;5.582;2023-08-07T03:07:34;20.60;62.20
71237;DHT22;58984;51.960;5.582;2023-08-07T03:10:00;20.60;62.20
71237;DHT22;58984;51.960;5.582;2023-08-07T03:12:25;20.60;62.20
71237;DHT22;58984;51.960;5.582;2023-08-07T03:14:51;20.60;62.20
71237;DHT22;58984;51.960;5.582;2023-08-07T03:17:16;20.50;62.10
71237;DHT22;58984;51.960;5.582;2023-08-07T03:19:43;20.50;62.10
71237;DHT22;58984;51.960;5.582;2023-08-07T03:22:09;20.50;62.10
71237;DHT22;58984;51.960;5.582;2023-08-07T03:24:34;20.50;62.10
71237;DHT22;58984;51.960;5.582;2023-08-07T03:27:00;20.60;62.30
71237;DHT22;58984;51.960;5.582;2023-08-07T03:29:26;20.60;62.20
71237;DHT22;58984;51.960;5.582;2023-08-07T03:31:52;20.50;62.10
71237;DHT22;58984;51.960;5.582;2023-08-07T03:34:17;20.50;62.10
71237;DHT22;58984;51.960;5.582;2023-08-07T03:36:43;20.50;62.20
71237;DHT22;58984;51.960;5.582;2023-08-07T03:39:08;20.50;62.30
71237;DHT22;58984;51.960;5.582;2023-08-07T03:41:35;20.50;62.30
71237;DHT22;58984;51.960;5.582;2023-08-07T03:44:01;20.50;62.30
71237;DHT22;58984;51.960;5.582;2023-08-07T03:46:27;20.50;62.30
71237;DHT22;58984;51.960;5.582;2023-08-07T03:48:52;20.50;62.30
71237;DHT22;58984;51.960;5.582;2023-08-07T03:51:18;20.50;62.40
71237;DHT22;58984;51.960;5.582;2023-08-07T03:53:44;20.50;62.30
71237;DHT22;58984;51.960;5.582;2023-08-07T03:56:09;20.50;62.30
71237;DHT22;58984;51.960;5.582;2023-08-07T03:58:35;20.50;62.30
71237;DHT22;58984;51.960;5.582;2023-08-07T04:01:00;20.50;62.40
71237;DHT22;58984;51.960;5.582;2023-08-07T04:03:26;20.50;62.30
71237;DHT22;58984;51.960;5.582;2023-08-07T04:05:53;20.50;62.30
71237;DHT22;58984;51.960;5.582;2023-08-07T04:08:19;20.50;62.40
71237;DHT22;58984;51.960;5.582;2023-08-07T04:10:45;20.50;62.40
71237;DHT22;58984;51.960;5.582;2023-08-07T04:13:11;20.50;62.40
71237;DHT22;58984;51.960;5.582;2023-08-07T04:15:36;20.50;62.40
71237;DHT22;58984;51.960;5.582;2023-08-07T04:18:02;20.50;62.40
71237;DHT22;58984;51.960;5.582;2023-08-07T04:20:27;20.50;62.40
71237;DHT22;58984;51.960;5.582;2023-08-07T04:22:53;20.50;62.50
71237;DHT22;58984;51.960;5.582;2023-08-07T04:25:19;20.50;62.40
71237;DHT22;58984;51.960;5.582;2023-08-07T04:27:44;20.50;62.40
71237;DHT22;58984;51.960;5.582;2023-08-07T04:30:10;20.50;62.50
71237;DHT22;58984;51.960;5.582;2023-08-07T04:32:36;20.50;62.50
71237;DHT22;58984;51.960;5.582;2023-08-07T04:35:01;20.50;62.50
71237;DHT22;58984;51.960;5.582;2023-08-07T04:37:27;20.50;62.70
71237;DHT22;58984;51.960;5.582;2023-08-07T04:39:53;20.50;62.60
71237;DHT22;58984;51.960;5.582;2023-08-07T04:42:19;20.50;62.60
71237;DHT22;58984;51.960;5.582;2023-08-07T04:44:45;20.50;62.70
71237;DHT22;58984;51.960;5.582;2023-08-07T04:47:11;20.50;62.60
71237;DHT22;58984;51.960;5.582;2023-08-07T04:49:36;20.50;62.70
71237;DHT22;58984;51.960;5.582;2023-08-07T04:52:02;20.40;62.50
71237;DHT22;58984;51.960;5.582;2023-08-07T04:54:28;20.50;62.70
71237;DHT22;58984;51.960;5.582;2023-08-07T04:56:53;20.50;62.70
71237;DHT22;58984;51.960;5.582;2023-08-07T04:59:19;20.50;62.70
71237;DHT22;58984;51.960;5.582;2023-08-07T05:01:44;20.50;62.70
71237;DHT22;58984;51.960;5.582;2023-08-07T05:04:10;20.40;62.60
71237;DHT22;58984;51.960;5.582;2023-08-07T05:06:39;20.50;62.70
71237;DHT22;58984;51.960;5.582;2023-08-07T05:09:04;20.50;62.70
71237;DHT22;58984;51.960;5.582;2023-08-07T05:11:30;20.50;62.70
71237;DHT22;58984;51.960;5.582;2023-08-07T05:13:56;20.40;62.70
71237;DHT22;58984;51.960;5.582;2023-08-07T05:16:21;20.50;62.80
71237;DHT22;58984;51.960;5.582;2023-08-07T05:18:48;20.50;62.80
71237;DHT22;58984;51.960;5.582;2023-08-07T05:21:14;20.40;62.70
71237;DHT22;58984;51.960;5.582;2023-08-07T05:23:40;20.50;62.80
71237;DHT22;58984;51.960;5.582;2023-08-07T05:26:05;20.50;62.80
71237;DHT22;58984;51.960;5.582;2023-08-07T05:28:31;20.50;62.80
71237;DHT22;58984;51.960;5.582;2023-08-07T05:30:56;20.50;62.80
71237;DHT22;58984;51.960;5.582;2023-08-07T05:33:22;20.50;62.80
71237;DHT22;58984;51.960;5.582;2023-08-07T05:35:47;20.50;62.80
71237;DHT22;58984;51.960;5.582;2023-08-07T05:38:13;20.40;62.70
71237;DHT22;58984;51.960;5.582;2023-08-07T05:40:39;20.40;62.80
71237;DHT22;58984;51.960;5.582;2023-08-07T05:43:05;20.40;62.80
71237;DHT22;58984;51.960;5.582;2023-08-07T05:45:31;20.50;62.90
71237;DHT22;58984;51.960;5.582;2023-08-07T05:47:57;20.40;62.80
71237;DHT22;58984;51.960;5.582;2023-08-07T05:50:22;20.50;62.90
71237;DHT22;58984;51.960;5.582;2023-08-07T05:52:48;20.40;62.80
71237;DHT22;58984;51.960;5.582;2023-08-07T05:55:13;20.50;63.00
71237;DHT22;58984;51.960;5.582;2023-08-07T05:57:39;20.40;62.90
71237;DHT22;58984;51.960;5.582;2023-08-07T06:00:05;20.50;63.00
71237;DHT22;58984;51.960;5.582;2023-08-07T06:02:31;20.50;63.00
71237;DHT22;58984;51.960;5.582;2023-08-07T06:04:56;20.50;62.90
71237;DHT22;58984;51.960;5.582;2023-08-07T06:07:22;20.40;62.80
71237;DHT22;58984;51.960;5.582;2023-08-07T06:09:47;20.50;62.90
71237;DHT22;58984;51.960;5.582;2023-08-07T06:12:13;20.50;62.90
71237;DHT22;58984;51.960;5.582;2023-08-07T06:14:38;20.50;62.90
71237;DHT22;58984;51.960;5.582;2023-08-07T06:17:04;20.40;62.80
71237;DHT22;58984;51.960;5.582;2023-08-07T06:19:31;20.50;62.90
71237;DHT22;58984;51.960;5.582;2023-08-07T06:21:56;20.50;63.00
71237;DHT22;58984;51.960;5.582;2023-08-07T06:24:22;20.40;62.90
71237;DHT22;58984;51.960;5.582;2023-08-07T06:26:47;20.50;63.00
71237;DHT22;58984;51.960;5.582;2023-08-07T06:29:13;20.50;63.00
71237;DHT22;58984;51.960;5.582;2023-08-07T06:31:39;20.40;62.90
71237;DHT22;58984;51.960;5.582;2023-08-07T06:34:04;20.50;63.00
71237;DHT22;58984;51.960;5.582;2023-08-07T06:36:30;20.40;62.90
71237;DHT22;58984;51.960;5.582;2023-08-07T06:38:55;20.50;63.00
71237;DHT22;58984;51.960;5.582;2023-08-07T06:41:21;20.50;63.00
71237;DHT22;58984;51.960;5.582;2023-08-07T06:43:47;20.50;63.00
71237;DHT22;58984;51.960;5.582;2023-08-07T06:46:12;20.50;63.00
71237;DHT22;58984;51.960;5.582;2023-08-07T06:48:38;20.50;63.80
71237;DHT22;58984;51.960;5.582;2023-08-07T06:51:03;20.50;63.10
71237;DHT22;58984;51.960;5.582;2023-08-07T06:53:29;20.50;63.10
71237;DHT22;58984;51.960;5.582;2023-08-07T06:55:55;20.50;63.10
71237;DHT22;58984;51.960;5.582;2023-08-07T06:58:20;20.40;63.00
71237;DHT22;58984;51.960;5.582;2023-08-07T07:00:46;20.50;63.10
71237;DHT22;58984;51.960;5.582;2023-08-07T07:03:11;20.50;63.20
71237;DHT22;58984;51.960;5.582;2023-08-07T07:05:37;20.50;63.20
71237;DHT22;58984;51.960;5.582;2023-08-07T07:08:03;20.50;63.20
71237;DHT22;58984;51.960;5.582;2023-08-07T07:10:29;20.50;63.20
71237;DHT22;58984;51.960;5.582;2023-08-07T07:12:54;20.50;63.20
71237;DHT22;58984;51.960;5.582;2023-08-07T07:15:20;20.50;63.30
71237;DHT22;58984;51.960;5.582;2023-08-07T07:17:46;20.50;63.20
71237;DHT22;58984;51.960;5.582;2023-08-07T07:20:12;20.50;63.20
71237;DHT22;58984;51.960;5.582;2023-08-07T07:22:37;20.50;63.30
71237;DHT22;58984;51.960;5.582;2023-08-07T07:25:04;20.50;63.30
71237;DHT22;58984;51.960;5.582;2023-08-07T07:27:30;20.50;63.30
71237;DHT22;58984;51.960;5.582;2023-08-07T07:29:55;20.50;63.20
71237;DHT22;58984;51.960;5.582;2023-08-07T07:32:21;20.60;64.20
71237;DHT22;58984;51.960;5.582;2023-08-07T07:34:46;20.60;63.30
71237;DHT22;58984;51.960;5.582;2023-08-07T07:37:13;20.60;63.30
71237;DHT22;58984;51.960;5.582;2023-08-07T07:39:39;20.60;63.40
71237;DHT22;58984;51.960;5.582;2023-08-07T07:42:05;20.60;63.40
71237;DHT22;58984;51.960;5.582;2023-08-07T07:44:31;20.70;63.60
71237;DHT22;58984;51.960;5.582;2023-08-07T07:46:57;20.70;63.60
71237;DHT22;58984;51.960;5.582;2023-08-07T07:49:22;20.60;63.50
71237;DHT22;58984;51.960;5.582;2023-08-07T07:51:48;20.70;63.60
71237;DHT22;58984;51.960;5.582;2023-08-07T07:54:14;20.70;63.50
71237;DHT22;58984;51.960;5.582;2023-08-07T07:56:40;20.70;63.50
71237;DHT22;58984;51.960;5.582;2023-08-07T07:59:06;20.70;63.50
71237;DHT22;58984;51.960;5.582;2023-08-07T08:01:31;20.70;63.50
71237;DHT22;58984;51.960;5.582;2023-08-07T08:03:57;20.70;63.50
71237;DHT22;58984;51.960;5.582;2023-08-07T08:06:22;20.70;63.40
71237;DHT22;58984;51.960;5.582;2023-08-07T08:08:48;20.70;63.40
71237;DHT22;58984;51.960;5.582;2023-08-07T08:11:13;20.70;63.40
71237;DHT22;58984;51.960;5.582;2023-08-07T08:13:39;20.70;63.50
71237;DHT22;58984;51.960;5.582;2023-08-07T08:16:06;20.70;63.50
71237;DHT22;58984;51.960;5.582;2023-08-07T08:18:32;20.70;63.50
71237;DHT22;58984;51.960;5.582;2023-08-07T08:20:58;20.70;63.50
71237;DHT22;58984;51.960;5.582;2023-08-07T08:23:23;20.70;63.60
71237;DHT22;58984;51.960;5.582;2023-08-07T08:25:49;20.80;63.50
71237;DHT22;58984;51.960;5.582;2023-08-07T08:28:14;20.80;63.50
71237;DHT22;58984;51.960;5.582;2023-08-07T08:30:41;20.80;63.60
71237;DHT22;58984;51.960;5.582;2023-08-07T08:33:07;20.80;63.60
71237;DHT22;58984;51.960;5.582;2023-08-07T08:35:34;20.90;63.80
71237;DHT22;58984;51.960;5.582;2023-08-07T08:38:00;20.90;63.90
71237;DHT22;58984;51.960;5.582;2023-08-07T08:40:26;21.00;64.20
71237;DHT22;58984;51.960;5.582;2023-08-07T08:42:53;21.00;64.20
71237;DHT22;58984;51.960;5.582;2023-08-07T08:45:24;21.00;64.40
71237;DHT22;58984;51.960;5.582;2023-08-07T08:47:51;21.00;64.00
71237;DHT22;58984;51.960;5.582;2023-08-07T08:50:19;21.10;64.10
71237;DHT22;58984;51.960;5.582;2023-08-07T08:52:46;21.10;64.00
71237;DHT22;58984;51.960;5.582;2023-08-07T08:55:12;21.10;63.90
71237;DHT22;58984;51.960;5.582;2023-08-07T08:57:39;21.10;63.80
71237;DHT22;58984;51.960;5.582;2023-08-07T09:00:06;21.10;63.80
71237;DHT22;58984;51.960;5.582;2023-08-07T09:02:47;21.20;63.90
71237;DHT22;58984;51.960;5.582;2023-08-07T09:05:14;21.20;63.80
71237;DHT22;58984;51.960;5.582;2023-08-07T09:07:40;21.20;63.90
71237;DHT22;58984;51.960;5.582;2023-08-07T09:10:07;21.20;63.90
71237;DHT22;58984;51.960;5.582;2023-08-07T09:12:33;21.20;64.10
71237;DHT22;58984;51.960;5.582;2023-08-07T09:15:02;21.30;64.20
71237;DHT22;58984;51.960;5.582;2023-08-07T09:17:31;21.30;64.10
71237;DHT22;58984;51.960;5.582;2023-08-07T09:19:58;21.30;64.30
71237;DHT22;58984;51.960;5.582;2023-08-07T09:22:24;21.40;64.30
71237;DHT22;58984;51.960;5.582;2023-08-07T09:24:50;21.40;64.30
71237;DHT22;58984;51.960;5.582;2023-08-07T09:27:15;21.40;64.10
71237;DHT22;58984;51.960;5.582;2023-08-07T09:29:41;21.40;64.00
71237;DHT22;58984;51.960;5.582;2023-08-07T09:32:09;21.50;64.10
71237;DHT22;58984;51.960;5.582;2023-08-07T09:34:39;21.50;64.00
71237;DHT22;58984;51.960;5.582;2023-08-07T09:37:05;21.50;63.90
71237;DHT22;58984;51.960;5.582;2023-08-07T09:39:30;21.50;63.80
71237;DHT22;58984;51.960;5.582;2023-08-07T09:41:56;21.50;63.80
71237;DHT22;58984;51.960;5.582;2023-08-07T09:44:22;21.60;63.90
71237;DHT22;58984;51.960;5.582;2023-08-07T09:46:47;21.50;63.80
71237;DHT22;58984;51.960;5.582;2023-08-07T09:49:13;21.60;63.90
71237;DHT22;58984;51.960;5.582;2023-08-07T09:54:08;21.60;63.80
71237;DHT22;58984;51.960;5.582;2023-08-07T09:56:35;21.60;63.80
71237;DHT22;58984;51.960;5.582;2023-08-07T09:59:01;21.60;63.80
71237;DHT22;58984;51.960;5.582;2023-08-07T10:01:26;21.70;63.80
71237;DHT22;58984;51.960;5.582;2023-08-07T10:03:53;21.70;63.80
71237;DHT22;58984;51.960;5.582;2023-08-07T10:06:19;21.70;63.80
71237;DHT22;58984;51.960;5.582;2023-08-07T10:08:45;21.70;63.80
71237;DHT22;58984;51.960;5.582;2023-08-07T10:11:11;21.70;63.70
71237;DHT22;58984;51.960;5.582;2023-08-07T10:13:40;21.70;63.80
71237;DHT22;58984;51.960;5.582;2023-08-07T10:16:07;21.70;63.80
71237;DHT22;58984;51.960;5.582;2023-08-07T10:18:33;21.80;63.80
71237;DHT22;58984;51.960;5.582;2023-08-07T10:21:01;21.80;63.70
71237;DHT22;58984;51.960;5.582;2023-08-07T10:23:26;21.80;63.70
71237;DHT22;58984;51.960;5.582;2023-08-07T10:25:53;21.80;63.70
71237;DHT22;58984;51.960;5.582;2023-08-07T10:28:20;21.80;63.60
71237;DHT22;58984;51.960;5.582;2023-08-07T10:30:48;21.90;63.60
71237;DHT22;58984;51.960;5.582;2023-08-07T10:33:15;21.90;63.60
71237;DHT22;58984;51.960;5.582;2023-08-07T10:35:47;21.90;63.50
71237;DHT22;58984;51.960;5.582;2023-08-07T10:38:14;21.90;63.50
71237;DHT22;58984;51.960;5.582;2023-08-07T10:43:39;21.90;63.60
71237;DHT22;58984;51.960;5.582;2023-08-07T10:46:06;22.00;63.50
71237;DHT22;58984;51.960;5.582;2023-08-07T10:48:47;22.00;63.50
71237;DHT22;58984;51.960;5.582;2023-08-07T10:51:14;22.00;63.50
71237;DHT22;58984;51.960;5.582;2023-08-07T10:53:48;22.10;63.40
71237;DHT22;58984;51.960;5.582;2023-08-07T10:58:49;22.10;63.40
71237;DHT22;58984;51.960;5.582;2023-08-07T11:04:09;22.10;63.60
71237;DHT22;58984;51.960;5.582;2023-08-07T11:06:37;22.10;63.30
71237;DHT22;58984;51.960;5.582;2023-08-07T11:09:05;22.20;63.50
71237;DHT22;58984;51.960;5.582;2023-08-07T11:11:40;22.20;63.50
71237;DHT22;58984;51.960;5.582;2023-08-07T11:14:07;22.20;63.60
71237;DHT22;58984;51.960;5.582;2023-08-07T11:16:37;22.30;63.50
71237;DHT22;58984;51.960;5.582;2023-08-07T11:19:03;22.30;63.50
71237;DHT22;58984;51.960;5.582;2023-08-07T11:21:31;22.30;63.40
71237;DHT22;58984;51.960;5.582;2023-08-07T11:23:57;22.40;63.50
71237;DHT22;58984;51.960;5.582;2023-08-07T11:26:22;22.40;63.30
71237;DHT22;58984;51.960;5.582;2023-08-07T11:28:50;22.50;63.40
71237;DHT22;58984;51.960;5.582;2023-08-07T11:31:20;22.50;63.30
71237;DHT22;58984;51.960;5.582;2023-08-07T11:33:46;22.50;63.30
71237;DHT22;58984;51.960;5.582;2023-08-07T11:36:13;22.60;63.40
71237;DHT22;58984;51.960;5.582;2023-08-07T11:38:43;22.60;63.30
71237;DHT22;58984;51.960;5.582;2023-08-07T11:41:10;22.50;63.10
71237;DHT22;58984;51.960;5.582;2023-08-07T11:43:36;22.60;63.10
71237;DHT22;58984;51.960;5.582;2023-08-07T11:46:04;22.60;63.10
71237;DHT22;58984;51.960;5.582;2023-08-07T11:48:32;22.60;63.10
71237;DHT22;58984;51.960;5.582;2023-08-07T11:50:58;22.60;63.10
71237;DHT22;58984;51.960;5.582;2023-08-07T11:53:29;22.60;63.00
71237;DHT22;58984;51.960;5.582;2023-08-07T11:55:56;22.60;62.90
71237;DHT22;58984;51.960;5.582;2023-08-07T11:58:24;22.60;62.90
71237;DHT22;58984;51.960;5.582;2023-08-07T12:00:50;22.60;62.80
71237;DHT22;58984;51.960;5.582;2023-08-07T12:03:32;22.60;62.80
71237;DHT22;58984;51.960;5.582;2023-08-07T12:06:02;22.50;62.90
71237;DHT22;58984;51.960;5.582;2023-08-07T12:08:38;22.60;62.80
71237;DHT22;58984;51.960;5.582;2023-08-07T12:11:12;22.60;62.80
71237;DHT22;58984;51.960;5.582;2023-08-07T12:13:47;22.60;62.80
71237;DHT22;58984;51.960;5.582;2023-08-07T12:16:14;22.60;62.80
71237;DHT22;58984;51.960;5.582;2023-08-07T12:18:53;22.60;62.70
71237;DHT22;58984;51.960;5.582;2023-08-07T12:21:23;22.60;62.80
71237;DHT22;58984;51.960;5.582;2023-08-07T12:23:55;22.70;62.80
71237;DHT22;58984;51.960;5.582;2023-08-07T12:26:21;22.70;62.90
71237;DHT22;58984;51.960;5.582;2023-08-07T12:28:47;22.70;62.90
71237;DHT22;58984;51.960;5.582;2023-08-07T12:31:13;22.70;62.90
71237;DHT22;58984;51.960;5.582;2023-08-07T12:33:39;22.80;62.80
71237;DHT22;58984;51.960;5.582;2023-08-07T12:36:04;22.80;62.70
71237;DHT22;58984;51.960;5.582;2023-08-07T12:38:30;22.90;62.80
71237;DHT22;58984;51.960;5.582;2023-08-07T12:40:56;22.90;62.80
71237;DHT22;58984;51.960;5.582;2023-08-07T12:43:22;22.90;62.80
71237;DHT22;58984;51.960;5.582;2023-08-07T12:45:48;22.90;62.70
71237;DHT22;58984;51.960;5.582;2023-08-07T12:48:13;23.00;62.80
71237;DHT22;58984;51.960;5.582;2023-08-07T12:50:39;23.00;62.70
71237;DHT22;58984;51.960;5.582;2023-08-07T12:53:06;23.00;62.80
71237;DHT22;58984;51.960;5.582;2023-08-07T12:55:32;23.00;62.70
71237;DHT22;58984;51.960;5.582;2023-08-07T12:57:57;23.00;62.70
71237;DHT22;58984;51.960;5.582;2023-08-07T13:00:23;23.00;62.70
71237;DHT22;58984;51.960;5.582;2023-08-07T13:02:51;23.00;62.70
71237;DHT22;58984;51.960;5.582;2023-08-07T13:05:17;23.00;62.80
71237;DHT22;58984;51.960;5.582;2023-08-07T13:07:44;23.00;62.80
71237;DHT22;58984;51.960;5.582;2023-08-07T13:10:13;23.00;62.70
71237;DHT22;58984;51.960;5.582;2023-08-07T13:12:40;23.00;62.70
71237;DHT22;58984;51.960;5.582;2023-08-07T13:15:08;23.10;62.80
71237;DHT22;58984;51.960;5.582;2023-08-07T13:17:34;23.10;62.80
71237;DHT22;58984;51.960;5.582;2023-08-07T13:20:02;23.10;62.80
71237;DHT22;58984;51.960;5.582;2023-08-07T13:22:42;23.10;62.80
71237;DHT22;58984;51.960;5.582;2023-08-07T13:25:10;23.10;62.90
71237;DHT22;58984;51.960;5.582;2023-08-07T13:27:36;23.10;62.80
71237;DHT22;58984;51.960;5.582;2023-08-07T13:30:03;23.10;62.80
71237;DHT22;58984;51.960;5.582;2023-08-07T13:32:29;23.20;62.90
71237;DHT22;58984;51.960;5.582;2023-08-07T13:34:55;23.20;62.80
71237;DHT22;58984;51.960;5.582;2023-08-07T13:37:21;23.20;62.80
71237;DHT22;58984;51.960;5.582;2023-08-07T13:39:47;23.20;62.70
71237;DHT22;58984;51.960;5.582;2023-08-07T13:42:15;23.20;62.70
71237;DHT22;58984;51.960;5.582;2023-08-07T13:44:40;23.30;62.80
71237;DHT22;58984;51.960;5.582;2023-08-07T13:47:06;23.20;62.70
71237;DHT22;58984;51.960;5.582;2023-08-07T13:49:32;23.30;62.80
71237;DHT22;58984;51.960;5.582;2023-08-07T13:51:58;23.30;62.80
71237;DHT22;58984;51.960;5.582;2023-08-07T13:54:23;23.30;62.70
71237;DHT22;58984;51.960;5.582;2023-08-07T13:56:49;23.30;62.50
71237;DHT22;58984;51.960;5.582;2023-08-07T13:59:15;23.30;62.30
71237;DHT22;58984;51.960;5.582;2023-08-07T14:01:41;23.30;62.00
71237;DHT22;58984;51.960;5.582;2023-08-07T14:04:07;23.40;62.10
71237;DHT22;58984;51.960;5.582;2023-08-07T14:06:33;23.30;62.10
71237;DHT22;58984;51.960;5.582;2023-08-07T14:08:58;23.40;62.30
71237;DHT22;58984;51.960;5.582;2023-08-07T14:11:26;23.30;62.20
71237;DHT22;58984;51.960;5.582;2023-08-07T14:13:57;23.30;62.10
71237;DHT22;58984;51.960;5.582;2023-08-07T14:16:23;23.40;62.20
71237;DHT22;58984;51.960;5.582;2023-08-07T14:18:49;23.40;62.30
71237;DHT22;58984;51.960;5.582;2023-08-07T14:21:14;23.40;62.20
71237;DHT22;58984;51.960;5.582;2023-08-07T14:23:41;23.40;62.10
71237;DHT22;58984;51.960;5.582;2023-08-07T14:26:08;23.40;62.20
71237;DHT22;58984;51.960;5.582;2023-08-07T14:28:33;23.40;62.00
71237;DHT22;58984;51.960;5.582;2023-08-07T14:30:59;23.40;61.90
71237;DHT22;58984;51.960;5.582;2023-08-07T14:33:26;23.40;62.10
71237;DHT22;58984;51.960;5.582;2023-08-07T14:35:52;23.40;62.30
71237;DHT22;58984;51.960;5.582;2023-08-07T14:38:18;23.40;62.00
71237;DHT22;58984;51.960;5.582;2023-08-07T14:40:43;23.40;61.80
71237;DHT22;58984;51.960;5.582;2023-08-07T14:43:09;23.40;61.90
71237;DHT22;58984;51.960;5.582;2023-08-07T14:45:36;23.40;62.00
71237;DHT22;58984;51.960;5.582;2023-08-07T14:48:03;23.40;61.70
71237;DHT22;58984;51.960;5.582;2023-08-07T14:50:28;23.40;61.70
71237;DHT22;58984;51.960;5.582;2023-08-07T14:52:54;23.40;61.70
71237;DHT22;58984;51.960;5.582;2023-08-07T14:55:19;23.40;61.70
71237;DHT22;58984;51.960;5.582;2023-08-07T14:57:45;23.40;62.00
71237;DHT22;58984;51.960;5.582;2023-08-07T15:00:11;23.50;62.10
71237;DHT22;58984;51.960;5.582;2023-08-07T15:02:37;23.50;61.90
71237;DHT22;58984;51.960;5.582;2023-08-07T15:05:03;23.50;61.80
71237;DHT22;58984;51.960;5.582;2023-08-07T15:07:29;23.50;61.80
71237;DHT22;58984;51.960;5.582;2023-08-07T15:09:54;23.40;61.50
71237;DHT22;58984;51.960;5.582;2023-08-07T15:12:20;23.40;61.50
71237;DHT22;58984;51.960;5.582;2023-08-07T15:14:48;23.40;61.40
71237;DHT22;58984;51.960;5.582;2023-08-07T15:17:14;23.40;60.90
71237;DHT22;58984;51.960;5.582;2023-08-07T15:19:42;23.40;60.90
71237;DHT22;58984;51.960;5.582;2023-08-07T15:22:07;23.40;60.90
71237;DHT22;58984;51.960;5.582;2023-08-07T15:24:33;23.40;60.90
71237;DHT22;58984;51.960;5.582;2023-08-07T15:27:01;23.40;60.90
71237;DHT22;58984;51.960;5.582;2023-08-07T15:29:27;23.40;60.80
71237;DHT22;58984;51.960;5.582;2023-08-07T15:31:56;23.40;60.80
71237;DHT22;58984;51.960;5.582;2023-08-07T15:34:24;23.40;60.70
71237;DHT22;58984;51.960;5.582;2023-08-07T15:37:05;23.40;60.90
71237;DHT22;58984;51.960;5.582;2023-08-07T15:39:41;23.30;60.70
71237;DHT22;58984;51.960;5.582;2023-08-07T15:42:07;23.30;60.80
71237;DHT22;58984;51.960;5.582;2023-08-07T15:44:44;23.40;60.80
71237;DHT22;58984;51.960;5.582;2023-08-07T15:47:13;23.30;60.80